sensor_id;sensor_type;location;lat;lon;timestamp;pressure;altitude;pressure_sealevel;temperature;humidity
40155;BME280;25875;48.202;16.334;2023-04-06T00:02:24;99151.22;;;1.79;38.73
40155;BME280;25875;48.202;16.334;2023-04-06T00:04:51;99431.59;;;3.43;38.80
40155;BME280;25875;48.202;16.334;2023-04-06T00:07:17;99493.59;;;3.78;38.82
40155;BME280;25875;48.202;16.334;2023-04-06T00:09:46;99497.19;;;3.74;39.09
40155;BME280;25875;48.202;16.334;2023-04-06T00:12:13;99497.25;;;3.72;38.99
40155;BME280;25875;48.202;16.334;2023-04-06T00:14:40;99486.72;;;3.74;39.00
40155;BME280;25875;48.202;16.334;2023-04-06T00:17:07;99496.47;;;3.69;39.10
40155;BME280;25875;48.202;16.334;2023-04-06T00:19:33;99488.59;;;3.69;38.93
40155;BME280;25875;48.202;16.334;2023-04-06T00:22:00;99493.00;;;3.67;39.14
40155;BME280;25875;48.202;16.334;2023-04-06T00:24:28;99486.16;;;3.61;39.17
40155;BME280;25875;48.202;16.334;2023-04-06T00:26:56;99493.19;;;3.59;39.31
40155;BME280;25875;48.202;16.334;2023-04-06T00:29:23;99485.50;;;3.53;39.36
40155;BME280;25875;48.202;16.334;2023-04-06T00:31:49;99488.19;;;3.50;39.55
40155;BME280;25875;48.202;16.334;2023-04-06T00:34:16;99487.38;;;3.48;39.53
40155;BME280;25875;48.202;16.334;2023-04-06T00:36:43;99482.16;;;3.46;39.65
40155;BME280;25875;48.202;16.334;2023-04-06T00:39:10;99481.34;;;3.44;39.62
40155;BME280;25875;48.202;16.334;2023-04-06T00:41:36;99480.50;;;3.42;39.65
40155;BME280;25875;48.202;16.334;2023-04-06T00:44:05;99471.81;;;3.40;39.92
40155;BME280;25875;48.202;16.334;2023-04-06T00:46:31;99477.06;;;3.40;39.87
40155;BME280;25875;48.202;16.334;2023-04-06T00:48:58;99443.56;;;3.17;39.63
40155;BME280;25875;48.202;16.334;2023-04-06T00:51:25;99481.59;;;3.34;39.77
40155;BME280;25875;48.202;16.334;2023-04-06T00:53:52;99476.38;;;3.32;39.78
40155;BME280;25875;48.202;16.334;2023-04-06T00:56:19;99386.91;;;2.78;39.83
40155;BME280;25875;48.202;16.334;2023-04-06T00:58:46;99479.09;;;3.29;39.95
40155;BME280;25875;48.202;16.334;2023-04-06T01:01:14;99431.75;;;3.00;40.35
40155;BME280;25875;48.202;16.334;2023-04-06T01:03:41;99474.81;;;3.25;40.17
40155;BME280;25875;48.202;16.334;2023-04-06T01:06:09;99391.63;;;2.62;40.45
40155;BME280;25875;48.202;16.334;2023-04-06T01:08:36;99474.06;;;3.20;40.24
40155;BME280;25875;48.202;16.334;2023-04-06T01:11:03;99477.66;;;3.16;40.47
40155;BME280;25875;48.202;16.334;2023-04-06T01:13:30;99474.22;;;3.14;40.56
40155;BME280;25875;48.202;16.334;2023-04-06T01:15:57;99475.13;;;3.11;40.46
40155;BME280;25875;48.202;16.334;2023-04-06T01:18:27;99470.88;;;3.07;40.86
40155;BME280;25875;48.202;16.334;2023-04-06T01:20:53;99473.59;;;3.03;40.95
40155;BME280;25875;48.202;16.334;2023-04-06T01:23:22;99475.44;;;2.98;40.90
40155;BME280;25875;48.202;16.334;2023-04-06T01:25:49;99471.19;;;2.94;40.88
40155;BME280;25875;48.202;16.334;2023-04-06T01:28:15;99466.81;;;2.94;40.86
40155;BME280;25875;48.202;16.334;2023-04-06T01:30:42;99471.25;;;2.91;40.79
40155;BME280;25875;48.202;16.334;2023-04-06T01:33:08;99468.69;;;2.87;40.94
40155;BME280;25875;48.202;16.334;2023-04-06T01:35:35;99458.28;;;2.84;40.89
40155;BME280;25875;48.202;16.334;2023-04-06T01:38:02;99463.56;;;2.83;40.91
40155;BME280;25875;48.202;16.334;2023-04-06T01:40:30;99433.56;;;2.59;41.20
40155;BME280;25875;48.202;16.334;2023-04-06T01:42:57;99461.97;;;2.76;41.01
40155;BME280;25875;48.202;16.334;2023-04-06T01:45:23;99468.13;;;2.73;41.03
40155;BME280;25875;48.202;16.334;2023-04-06T01:47:50;99265.03;;;1.49;41.16
40155;BME280;25875;48.202;16.334;2023-04-06T01:50:17;99462.06;;;2.71;41.00
40155;BME280;25875;48.202;16.334;2023-04-06T01:52:44;99463.91;;;2.68;41.07
40155;BME280;25875;48.202;16.334;2023-04-06T01:55:11;99460.50;;;2.64;41.13
40155;BME280;25875;48.202;16.334;2023-04-06T01:57:40;99458.78;;;2.62;41.22
40155;BME280;25875;48.202;16.334;2023-04-06T02:00:07;99455.41;;;2.57;41.21
40155;BME280;25875;48.202;16.334;2023-04-06T02:02:34;99459.78;;;2.56;41.33
40155;BME280;25875;48.202;16.334;2023-04-06T02:05:01;99453.75;;;2.52;41.31
40155;BME280;25875;48.202;16.334;2023-04-06T02:07:28;99423.66;;;2.33;41.25
40155;BME280;25875;48.202;16.334;2023-04-06T02:09:55;99458.13;;;2.52;41.24
40155;BME280;25875;48.202;16.334;2023-04-06T02:12:21;99454.66;;;2.51;41.29
40155;BME280;25875;48.202;16.334;2023-04-06T02:14:50;99453.78;;;2.51;41.21
40155;BME280;25875;48.202;16.334;2023-04-06T02:17:17;99455.56;;;2.49;41.17
40155;BME280;25875;48.202;16.334;2023-04-06T02:19:43;99459.97;;;2.47;41.30
40155;BME280;25875;48.202;16.334;2023-04-06T02:22:10;99457.47;;;2.42;41.25
40155;BME280;25875;48.202;16.334;2023-04-06T02:24:37;99455.78;;;2.40;41.08
40155;BME280;25875;48.202;16.334;2023-04-06T02:27:03;99413.56;;;2.15;41.48
40155;BME280;25875;48.202;16.334;2023-04-06T02:29:31;99415.38;;;2.11;41.72
40155;BME280;25875;48.202;16.334;2023-04-06T02:31:59;99449.91;;;2.29;41.37
40155;BME280;25875;48.202;16.334;2023-04-06T02:34:25;99453.41;;;2.28;41.50
40155;BME280;25875;48.202;16.334;2023-04-06T02:36:52;99452.53;;;2.27;41.40
40155;BME280;25875;48.202;16.334;2023-04-06T02:39:19;99455.16;;;2.27;41.46
40155;BME280;25875;48.202;16.334;2023-04-06T02:41:45;99448.19;;;2.26;41.36
40155;BME280;25875;48.202;16.334;2023-04-06T02:44:12;99449.97;;;2.26;41.29
40155;BME280;25875;48.202;16.334;2023-04-06T02:46:39;99417.13;;;2.11;41.41
40155;BME280;25875;48.202;16.334;2023-04-06T02:49:07;99440.31;;;2.28;41.36
40155;BME280;25875;48.202;16.334;2023-04-06T02:51:35;99441.22;;;2.27;41.42
40155;BME280;25875;48.202;16.334;2023-04-06T02:54:02;99441.19;;;2.28;41.24
40155;BME280;25875;48.202;16.334;2023-04-06T02:56:29;99409.41;;;2.05;41.51
40155;BME280;25875;48.202;16.334;2023-04-06T02:58:55;99449.97;;;2.26;41.54
40155;BME280;25875;48.202;16.334;2023-04-06T03:01:23;99449.00;;;2.30;41.54
40155;BME280;25875;48.202;16.334;2023-04-06T03:03:50;99452.53;;;2.27;41.70
40155;BME280;25875;48.202;16.334;2023-04-06T03:06:18;99449.09;;;2.25;41.54
40155;BME280;25875;48.202;16.334;2023-04-06T03:08:44;99442.16;;;2.22;41.76
40155;BME280;25875;48.202;16.334;2023-04-06T03:11:12;99445.69;;;2.21;41.80
40155;BME280;25875;48.202;16.334;2023-04-06T03:13:39;99446.53;;;2.22;42.18
40155;BME280;25875;48.202;16.334;2023-04-06T03:16:06;99446.53;;;2.22;41.93
40155;BME280;25875;48.202;16.334;2023-04-06T03:18:32;99450.06;;;2.19;41.89
40155;BME280;25875;48.202;16.334;2023-04-06T03:20:59;99450.97;;;2.18;42.08
40155;BME280;25875;48.202;16.334;2023-04-06T03:23:27;99451.06;;;2.14;41.95
40155;BME280;25875;48.202;16.334;2023-04-06T03:25:54;99446.66;;;2.16;42.15
40155;BME280;25875;48.202;16.334;2023-04-06T03:28:21;99451.03;;;2.15;41.89
40155;BME280;25875;48.202;16.334;2023-04-06T03:30:47;99448.41;;;2.15;42.08
40155;BME280;25875;48.202;16.334;2023-04-06T03:33:14;99453.66;;;2.15;42.12
40155;BME280;25875;48.202;16.334;2023-04-06T03:35:41;99301.31;;;1.18;42.04
40155;BME280;25875;48.202;16.334;2023-04-06T03:38:07;99453.66;;;2.15;42.19
40155;BME280;25875;48.202;16.334;2023-04-06T03:40:35;99453.72;;;2.12;42.18
40155;BME280;25875;48.202;16.334;2023-04-06T03:43:03;99453.72;;;2.11;42.07
40155;BME280;25875;48.202;16.334;2023-04-06T03:45:30;99456.38;;;2.09;42.24
40155;BME280;25875;48.202;16.334;2023-04-06T03:47:57;99454.66;;;2.08;42.17
40155;BME280;25875;48.202;16.334;2023-04-06T03:50:23;99454.69;;;2.07;42.26
40155;BME280;25875;48.202;16.334;2023-04-06T03:52:50;99464.28;;;2.06;42.09
40155;BME280;25875;48.202;16.334;2023-04-06T03:55:17;99461.69;;;2.05;42.17
40155;BME280;25875;48.202;16.334;2023-04-06T03:57:45;99459.94;;;2.05;42.25
40155;BME280;25875;48.202;16.334;2023-04-06T04:00:12;99460.91;;;2.01;42.16
40155;BME280;25875;48.202;16.334;2023-04-06T04:02:39;99437.72;;;1.83;42.08
40155;BME280;25875;48.202;16.334;2023-04-06T04:05:06;99466.06;;;2.04;42.15
40155;BME280;25875;48.202;16.334;2023-04-06T04:07:33;99481.78;;;2.03;42.35
40155;BME280;25875;48.202;16.334;2023-04-06T04:10:00;99482.69;;;2.00;42.51
40155;BME280;25875;48.202;16.334;2023-04-06T04:12:26;99476.63;;;1.98;42.46
40155;BME280;25875;48.202;16.334;2023-04-06T04:14:54;99469.69;;;1.97;42.51
40155;BME280;25875;48.202;16.334;2023-04-06T04:17:21;99481.03;;;1.96;42.66
40155;BME280;25875;48.202;16.334;2023-04-06T04:19:48;99470.63;;;1.93;42.59
40155;BME280;25875;48.202;16.334;2023-04-06T04:22:14;99471.53;;;1.92;42.67
40155;BME280;25875;48.202;16.334;2023-04-06T04:24:41;99473.31;;;1.90;42.70
40155;BME280;25875;48.202;16.334;2023-04-06T04:27:08;99470.66;;;1.92;42.61
40155;BME280;25875;48.202;16.334;2023-04-06T04:29:34;99473.25;;;1.93;42.72
40155;BME280;25875;48.202;16.334;2023-04-06T04:32:03;99446.59;;;1.73;43.03
40155;BME280;25875;48.202;16.334;2023-04-06T04:34:29;99481.09;;;1.93;42.84
40155;BME280;25875;48.202;16.334;2023-04-06T04:36:56;99487.25;;;1.89;43.09
40155;BME280;25875;48.202;16.334;2023-04-06T04:39:23;99482.88;;;1.89;43.21
40155;BME280;25875;48.202;16.334;2023-04-06T04:41:50;99489.84;;;1.90;42.95
40155;BME280;25875;48.202;16.334;2023-04-06T04:44:16;99486.38;;;1.90;43.39
40155;BME280;25875;48.202;16.334;2023-04-06T04:46:43;99458.84;;;1.71;43.12
40155;BME280;25875;48.202;16.334;2023-04-06T04:49:11;99488.09;;;1.91;43.35
40155;BME280;25875;48.202;16.334;2023-04-06T04:51:38;99485.47;;;1.91;43.40
40155;BME280;25875;48.202;16.334;2023-04-06T04:54:04;99478.53;;;1.90;43.51
40155;BME280;25875;48.202;16.334;2023-04-06T04:56:31;99479.41;;;1.89;43.63
40155;BME280;25875;48.202;16.334;2023-04-06T04:58:58;99475.94;;;1.88;43.50
40155;BME280;25875;48.202;16.334;2023-04-06T05:01:24;99475.91;;;1.90;43.73
40155;BME280;25875;48.202;16.334;2023-04-06T05:03:51;99474.16;;;1.90;43.97
40155;BME280;25875;48.202;16.334;2023-04-06T05:06:19;99477.66;;;1.89;44.14
40155;BME280;25875;48.202;16.334;2023-04-06T05:08:46;99475.00;;;1.93;43.95
40155;BME280;25875;48.202;16.334;2023-04-06T05:11:12;99480.22;;;1.93;43.82
40155;BME280;25875;48.202;16.334;2023-04-06T05:13:39;99431.00;;;1.68;43.73
40155;BME280;25875;48.202;16.334;2023-04-06T05:16:06;99480.19;;;1.94;43.94
40155;BME280;25875;48.202;16.334;2023-04-06T05:18:33;99485.41;;;1.96;43.95
40155;BME280;25875;48.202;16.334;2023-04-06T05:20:59;99472.28;;;1.99;44.01
40155;BME280;25875;48.202;16.334;2023-04-06T05:23:27;99489.69;;;1.98;44.07
40155;BME280;25875;48.202;16.334;2023-04-06T05:25:54;99472.28;;;1.99;44.04
40155;BME280;25875;48.202;16.334;2023-04-06T05:28:21;99474.00;;;2.00;44.28
40155;BME280;25875;48.202;16.334;2023-04-06T05:30:47;99478.28;;;2.04;44.14
40155;BME280;25875;48.202;16.334;2023-04-06T05:33:14;99473.88;;;2.06;44.04
40155;BME280;25875;48.202;16.334;2023-04-06T05:35:41;99469.44;;;2.09;44.04
40155;BME280;25875;48.202;16.334;2023-04-06T05:38:08;99479.03;;;2.10;44.04
40155;BME280;25875;48.202;16.334;2023-04-06T05:40:37;99473.69;;;2.15;44.31
40155;BME280;25875;48.202;16.334;2023-04-06T05:43:06;99473.63;;;2.19;43.89
40155;BME280;25875;48.202;16.334;2023-04-06T05:45:32;99477.88;;;2.25;44.05
40155;BME280;25875;48.202;16.334;2023-04-06T05:48:00;99476.06;;;2.27;44.15
40155;BME280;25875;48.202;16.334;2023-04-06T05:50:27;99464.66;;;2.31;44.06
40155;BME280;25875;48.202;16.334;2023-04-06T05:52:53;99468.94;;;2.35;44.03
40155;BME280;25875;48.202;16.334;2023-04-06T05:55:20;99477.53;;;2.42;43.87
40155;BME280;25875;48.202;16.334;2023-04-06T05:57:48;99435.06;;;2.29;43.90
40155;BME280;25875;48.202;16.334;2023-04-06T06:00:15;99465.94;;;2.53;43.92
40155;BME280;25875;48.202;16.334;2023-04-06T06:02:42;99476.31;;;2.58;43.84
40155;BME280;25875;48.202;16.334;2023-04-06T06:05:08;99481.38;;;2.66;43.81
40155;BME280;25875;48.202;16.334;2023-04-06T06:07:35;99471.66;;;2.72;43.69
40155;BME280;25875;48.202;16.334;2023-04-06T06:10:02;99478.41;;;2.82;43.53
40155;BME280;25875;48.202;16.334;2023-04-06T06:12:29;99469.47;;;2.93;43.57
40155;BME280;25875;48.202;16.334;2023-04-06T06:14:57;99477.91;;;3.05;43.32
40155;BME280;25875;48.202;16.334;2023-04-06T06:17:24;99446.59;;;3.01;43.01
40155;BME280;25875;48.202;16.334;2023-04-06T06:19:50;99482.22;;;3.43;42.88
40155;BME280;25875;48.202;16.334;2023-04-06T06:22:17;99369.59;;;3.08;42.53
40155;BME280;25875;48.202;16.334;2023-04-06T06:24:44;99464.16;;;4.01;42.01
40155;BME280;25875;48.202;16.334;2023-04-06T06:27:10;99468.44;;;4.37;41.44
40155;BME280;25875;48.202;16.334;2023-04-06T06:29:37;99468.50;;;4.65;40.89
40155;BME280;25875;48.202;16.334;2023-04-06T06:32:05;99433.31;;;4.71;40.69
40155;BME280;25875;48.202;16.334;2023-04-06T06:34:34;99468.66;;;5.18;40.33
40155;BME280;25875;48.202;16.334;2023-04-06T06:37:01;99467.03;;;5.42;40.12
40155;BME280;25875;48.202;16.334;2023-04-06T06:39:28;99462.72;;;5.66;39.69
40155;BME280;25875;48.202;16.334;2023-04-06T06:41:55;99460.22;;;5.88;39.41
40155;BME280;25875;48.202;16.334;2023-04-06T06:44:21;99461.03;;;6.15;39.19
40155;BME280;25875;48.202;16.334;2023-04-06T06:46:48;99448.22;;;6.29;38.84
40155;BME280;25875;48.202;16.334;2023-04-06T06:49:16;99455.63;;;6.66;38.69
40155;BME280;25875;48.202;16.334;2023-04-06T06:51:44;99448.66;;;6.88;38.43
40155;BME280;25875;48.202;16.334;2023-04-06T06:54:11;99463.69;;;7.08;38.08
40155;BME280;25875;48.202;16.334;2023-04-06T06:56:37;99414.59;;;7.05;38.00
40155;BME280;25875;48.202;16.334;2023-04-06T06:59:04;99461.34;;;7.46;37.94
40155;BME280;25875;48.202;16.334;2023-04-06T07:01:32;99458.88;;;7.63;37.70
40155;BME280;25875;48.202;16.334;2023-04-06T07:03:59;99458.09;;;7.81;37.81
40155;BME280;25875;48.202;16.334;2023-04-06T07:06:27;99459.03;;;8.00;37.60
40155;BME280;25875;48.202;16.334;2023-04-06T07:08:54;99454.75;;;8.18;37.46
40155;BME280;25875;48.202;16.334;2023-04-06T07:11:21;99463.19;;;8.26;37.32
40155;BME280;25875;48.202;16.334;2023-04-06T07:13:47;99462.91;;;8.32;37.29
40155;BME280;25875;48.202;16.334;2023-04-06T07:16:15;99452.34;;;8.32;37.37
40155;BME280;25875;48.202;16.334;2023-04-06T07:18:41;99458.88;;;8.44;37.45
40155;BME280;25875;48.202;16.334;2023-04-06T07:21:08;99458.31;;;8.56;37.33
40155;BME280;25875;48.202;16.334;2023-04-06T07:23:36;99457.81;;;8.67;37.70
40155;BME280;25875;48.202;16.334;2023-04-06T07:26:03;99379.13;;;8.36;37.16
40155;BME280;25875;48.202;16.334;2023-04-06T07:28:30;99462.53;;;8.98;37.09
40155;BME280;25875;48.202;16.334;2023-04-06T07:30:56;99460.09;;;9.12;37.01
40155;BME280;25875;48.202;16.334;2023-04-06T07:33:23;99447.03;;;9.28;36.91
40155;BME280;25875;48.202;16.334;2023-04-06T07:35:50;99445.47;;;9.43;36.79
40155;BME280;25875;48.202;16.334;2023-04-06T07:38:19;99293.16;;;8.66;36.47
40155;BME280;25875;48.202;16.334;2023-04-06T07:40:47;99438.28;;;9.81;36.32
40155;BME280;25875;48.202;16.334;2023-04-06T07:43:13;99436.78;;;9.92;36.15
40155;BME280;25875;48.202;16.334;2023-04-06T07:45:41;99436.94;;;10.07;36.02
40155;BME280;25875;48.202;16.334;2023-04-06T07:48:07;99433.16;;;10.28;35.93
40155;BME280;25875;48.202;16.334;2023-04-06T07:50:35;99421.59;;;10.46;35.38
40155;BME280;25875;48.202;16.334;2023-04-06T07:53:01;99431.63;;;10.57;35.23
40155;BME280;25875;48.202;16.334;2023-04-06T07:55:29;99427.28;;;10.72;35.17
40155;BME280;25875;48.202;16.334;2023-04-06T07:57:57;99429.19;;;10.85;34.87
40155;BME280;25875;48.202;16.334;2023-04-06T08:00:24;99426.56;;;11.01;34.89
40155;BME280;25875;48.202;16.334;2023-04-06T08:02:51;99425.28;;;11.08;34.55
40155;BME280;25875;48.202;16.334;2023-04-06T08:05:18;99418.69;;;11.15;34.63
40155;BME280;25875;48.202;16.334;2023-04-06T08:07:44;99422.44;;;11.27;34.43
40155;BME280;25875;48.202;16.334;2023-04-06T08:10:11;99408.81;;;11.33;34.07
40155;BME280;25875;48.202;16.334;2023-04-06T08:12:38;99412.91;;;11.39;33.64
40155;BME280;25875;48.202;16.334;2023-04-06T08:15:06;99384.78;;;11.20;32.98
40155;BME280;25875;48.202;16.334;2023-04-06T08:17:33;99412.16;;;11.37;33.80
40155;BME280;25875;48.202;16.334;2023-04-06T08:20:00;99417.25;;;11.55;33.58
40155;BME280;25875;48.202;16.334;2023-04-06T08:22:28;99419.28;;;11.66;33.38
40155;BME280;25875;48.202;16.334;2023-04-06T08:24:55;99419.59;;;11.76;33.42
40155;BME280;25875;48.202;16.334;2023-04-06T08:27:22;99414.31;;;11.90;33.30
40155;BME280;25875;48.202;16.334;2023-04-06T08:29:49;99403.16;;;11.99;32.38
40155;BME280;25875;48.202;16.334;2023-04-06T08:32:17;99414.34;;;12.20;32.59
40155;BME280;25875;48.202;16.334;2023-04-06T08:34:44;99388.53;;;12.22;32.59
40155;BME280;25875;48.202;16.334;2023-04-06T08:37:11;99404.19;;;12.41;32.23
40155;BME280;25875;48.202;16.334;2023-04-06T08:39:38;99349.59;;;12.07;32.13
40155;BME280;25875;48.202;16.334;2023-04-06T08:42:11;99409.97;;;12.62;31.03
40155;BME280;25875;48.202;16.334;2023-04-06T08:44:39;99401.63;;;12.68;31.87
40155;BME280;25875;48.202;16.334;2023-04-06T08:47:07;99395.06;;;12.73;31.95
40155;BME280;25875;48.202;16.334;2023-04-06T08:49:37;99395.91;;;12.74;30.81
40155;BME280;25875;48.202;16.334;2023-04-06T08:52:05;99398.84;;;12.83;31.78
40155;BME280;25875;48.202;16.334;2023-04-06T08:54:32;99395.59;;;12.93;31.59
40155;BME280;25875;48.202;16.334;2023-04-06T08:56:59;99390.53;;;13.02;31.50
40155;BME280;25875;48.202;16.334;2023-04-06T08:59:27;99390.28;;;13.20;31.42
40155;BME280;25875;48.202;16.334;2023-04-06T09:01:55;99307.97;;;12.77;31.34
40155;BME280;25875;48.202;16.334;2023-04-06T09:04:21;99385.13;;;13.31;31.43
40155;BME280;25875;48.202;16.334;2023-04-06T09:06:49;99391.75;;;13.38;31.14
40155;BME280;25875;48.202;16.334;2023-04-06T09:09:16;99381.22;;;13.36;31.34
40155;BME280;25875;48.202;16.334;2023-04-06T09:11:45;99374.94;;;13.37;31.39
40155;BME280;25875;48.202;16.334;2023-04-06T09:14:12;99371.59;;;13.48;31.26
40155;BME280;25875;48.202;16.334;2023-04-06T09:16:39;99363.69;;;13.46;31.09
40155;BME280;25875;48.202;16.334;2023-04-06T09:19:06;99331.47;;;13.37;31.28
40155;BME280;25875;48.202;16.334;2023-04-06T09:21:33;99357.41;;;13.47;30.84
40155;BME280;25875;48.202;16.334;2023-04-06T09:24:03;99320.50;;;13.29;30.74
40155;BME280;25875;48.202;16.334;2023-04-06T09:26:30;99311.69;;;13.41;30.69
40155;BME280;25875;48.202;16.334;2023-04-06T09:28:59;99332.75;;;13.71;30.65
40155;BME280;25875;48.202;16.334;2023-04-06T09:31:28;99328.81;;;13.64;30.45
40155;BME280;25875;48.202;16.334;2023-04-06T09:33:56;99334.00;;;13.53;30.47
40155;BME280;25875;48.202;16.334;2023-04-06T09:36:29;99332.44;;;13.36;29.02
40155;BME280;25875;48.202;16.334;2023-04-06T09:38:58;99235.06;;;12.67;30.96
40155;BME280;25875;48.202;16.334;2023-04-06T09:41:27;99335.66;;;13.41;30.12
40155;BME280;25875;48.202;16.334;2023-04-06T09:44:02;99326.13;;;13.51;29.25
40155;BME280;25875;48.202;16.334;2023-04-06T09:46:31;99324.75;;;13.58;29.97
40155;BME280;25875;48.202;16.334;2023-04-06T09:48:59;99332.09;;;13.67;30.22
40155;BME280;25875;48.202;16.334;2023-04-06T09:51:30;99320.63;;;13.79;29.01
40155;BME280;25875;48.202;16.334;2023-04-06T09:53:59;99318.06;;;13.91;29.14
40155;BME280;25875;48.202;16.334;2023-04-06T09:56:31;99322.00;;;13.98;28.58
40155;BME280;25875;48.202;16.334;2023-04-06T09:59:02;99277.88;;;13.81;28.90
40155;BME280;25875;48.202;16.334;2023-04-06T10:01:33;99278.53;;;13.85;28.81
40155;BME280;25875;48.202;16.334;2023-04-06T10:04:09;99275.13;;;13.70;27.88
40155;BME280;25875;48.202;16.334;2023-04-06T10:06:39;99299.63;;;13.88;28.88
40155;BME280;25875;48.202;16.334;2023-04-06T10:09:07;99302.06;;;13.78;28.67
40155;BME280;25875;48.202;16.334;2023-04-06T10:11:36;99304.09;;;13.62;28.86
40155;BME280;25875;48.202;16.334;2023-04-06T10:14:03;99301.63;;;13.59;29.19
40155;BME280;25875;48.202;16.334;2023-04-06T10:16:30;99297.88;;;13.48;28.70
40155;BME280;25875;48.202;16.334;2023-04-06T10:19:04;99179.09;;;12.56;27.97
40155;BME280;25875;48.202;16.334;2023-04-06T10:21:33;99304.19;;;13.21;28.80
40155;BME280;25875;48.202;16.334;2023-04-06T10:24:02;99294.69;;;13.16;28.86
40155;BME280;25875;48.202;16.334;2023-04-06T10:26:36;99257.31;;;13.05;29.11
40155;BME280;25875;48.202;16.334;2023-04-06T10:29:03;99264.91;;;13.24;28.69
40155;BME280;25875;48.202;16.334;2023-04-06T10:31:30;99276.00;;;13.31;28.62
40155;BME280;25875;48.202;16.334;2023-04-06T10:33:58;99275.78;;;13.34;28.46
40155;BME280;25875;48.202;16.334;2023-04-06T10:36:26;99270.38;;;13.35;28.53
40155;BME280;25875;48.202;16.334;2023-04-06T10:38:55;99276.91;;;13.44;28.34
40155;BME280;25875;48.202;16.334;2023-04-06T10:41:22;99235.13;;;13.32;28.11
40155;BME280;25875;48.202;16.334;2023-04-06T10:43:56;99270.31;;;13.50;27.08
40155;BME280;25875;48.202;16.334;2023-04-06T10:46:25;99214.78;;;13.18;27.85
40155;BME280;25875;48.202;16.334;2023-04-06T10:48:52;99265.94;;;13.48;28.33
40155;BME280;25875;48.202;16.334;2023-04-06T10:51:24;99270.22;;;13.51;27.16
40155;BME280;25875;48.202;16.334;2023-04-06T10:53:54;99255.19;;;13.50;27.86
40155;BME280;25875;48.202;16.334;2023-04-06T10:56:22;99259.97;;;13.45;27.87
40155;BME280;25875;48.202;16.334;2023-04-06T10:58:50;99222.78;;;13.31;28.08
40155;BME280;25875;48.202;16.334;2023-04-06T11:01:21;99228.09;;;13.31;27.63
40155;BME280;25875;48.202;16.334;2023-04-06T11:03:50;99255.88;;;13.39;28.06
40155;BME280;25875;48.202;16.334;2023-04-06T11:06:18;99256.41;;;13.32;28.27
40155;BME280;25875;48.202;16.334;2023-04-06T11:08:45;99257.56;;;13.28;28.40
40155;BME280;25875;48.202;16.334;2023-04-06T11:11:13;99251.72;;;13.23;28.18
40155;BME280;25875;48.202;16.334;2023-04-06T11:13:42;99260.97;;;13.17;28.14
40155;BME280;25875;48.202;16.334;2023-04-06T11:16:14;99247.66;;;13.17;27.70
40155;BME280;25875;48.202;16.334;2023-04-06T11:18:53;99131.53;;;12.51;26.83
40155;BME280;25875;48.202;16.334;2023-04-06T11:21:36;99234.25;;;13.19;27.05
40155;BME280;25875;48.202;16.334;2023-04-06T11:24:06;99216.00;;;13.00;28.06
40155;BME280;25875;48.202;16.334;2023-04-06T11:26:37;99237.72;;;12.94;27.43
40155;BME280;25875;48.202;16.334;2023-04-06T11:29:04;99238.66;;;12.93;28.04
40155;BME280;25875;48.202;16.334;2023-04-06T11:31:30;99231.31;;;12.96;28.12
40155;BME280;25875;48.202;16.334;2023-04-06T11:33:58;99225.59;;;13.02;27.94
40155;BME280;25875;48.202;16.334;2023-04-06T11:36:27;99195.91;;;12.96;27.98
40155;BME280;25875;48.202;16.334;2023-04-06T11:38:56;99208.94;;;13.26;27.89
40155;BME280;25875;48.202;16.334;2023-04-06T11:41:23;99201.81;;;13.39;27.64
40155;BME280;25875;48.202;16.334;2023-04-06T11:43:55;99213.31;;;13.39;27.61
40155;BME280;25875;48.202;16.334;2023-04-06T11:46:22;99195.84;;;13.35;27.65
40155;BME280;25875;48.202;16.334;2023-04-06T11:48:48;99206.59;;;13.34;27.55
40155;BME280;25875;48.202;16.334;2023-04-06T11:51:22;99185.19;;;13.35;26.77
40155;BME280;25875;48.202;16.334;2023-04-06T11:53:49;99194.25;;;13.33;27.42
40155;BME280;25875;48.202;16.334;2023-04-06T11:56:26;99185.63;;;13.29;26.29
40155;BME280;25875;48.202;16.334;2023-04-06T11:58:55;99188.81;;;13.34;27.46
40155;BME280;25875;48.202;16.334;2023-04-06T12:01:22;99184.16;;;13.51;27.30
40155;BME280;25875;48.202;16.334;2023-04-06T12:03:48;99185.84;;;13.64;27.01
40155;BME280;25875;48.202;16.334;2023-04-06T12:06:15;99174.66;;;13.72;26.94
40155;BME280;25875;48.202;16.334;2023-04-06T12:08:43;99163.56;;;13.78;26.87
40155;BME280;25875;48.202;16.334;2023-04-06T12:11:11;99119.72;;;13.58;26.66
40155;BME280;25875;48.202;16.334;2023-04-06T12:13:37;99141.22;;;13.68;26.37
40155;BME280;25875;48.202;16.334;2023-04-06T12:16:05;99158.91;;;13.69;26.52
40155;BME280;25875;48.202;16.334;2023-04-06T12:18:32;99158.78;;;13.70;26.41
40155;BME280;25875;48.202;16.334;2023-04-06T12:20:58;99148.13;;;13.70;26.40
40155;BME280;25875;48.202;16.334;2023-04-06T12:23:25;99153.53;;;13.82;26.65
40155;BME280;25875;48.202;16.334;2023-04-06T12:25:53;99144.78;;;13.92;26.33
40155;BME280;25875;48.202;16.334;2023-04-06T12:28:20;99115.72;;;13.76;25.98
40155;BME280;25875;48.202;16.334;2023-04-06T12:30:49;99145.09;;;14.00;26.27
40155;BME280;25875;48.202;16.334;2023-04-06T12:33:16;99137.59;;;14.05;26.28
40155;BME280;25875;48.202;16.334;2023-04-06T12:35:43;99129.09;;;14.00;26.20
40155;BME280;25875;48.202;16.334;2023-04-06T12:38:09;99137.81;;;14.02;26.09
40155;BME280;25875;48.202;16.334;2023-04-06T12:40:37;99144.44;;;13.97;26.15
40155;BME280;25875;48.202;16.334;2023-04-06T12:43:06;99129.97;;;13.88;26.31
40155;BME280;25875;48.202;16.334;2023-04-06T12:45:34;99100.75;;;13.63;26.22
40155;BME280;25875;48.202;16.334;2023-04-06T12:48:01;99145.56;;;13.82;26.47
40155;BME280;25875;48.202;16.334;2023-04-06T12:50:27;99131.50;;;13.79;26.50
40155;BME280;25875;48.202;16.334;2023-04-06T12:52:54;99130.88;;;13.76;26.22
40155;BME280;25875;48.202;16.334;2023-04-06T12:55:20;99122.25;;;13.72;26.65
40155;BME280;25875;48.202;16.334;2023-04-06T12:57:47;99123.22;;;13.59;26.29